sensor_id;sensor_type;location;lat;lon;timestamp;temperature;humidity
17994;DHT22;9122;48.406;9.984;2022-09-17T00:00:58;13.20;91.30
17994;DHT22;9122;48.406;9.984;2022-09-17T00:03:43;13.20;91.40
17994;DHT22;9122;48.406;9.984;2022-09-17T00:06:29;13.20;91.50
17994;DHT22;9122;48.406;9.984;2022-09-17T00:09:14;13.20;91.50
17994;DHT22;9122;48.406;9.984;2022-09-17T00:11:58;13.10;91.50
17994;DHT22;9122;48.406;9.984;2022-09-17T00:14:43;13.20;91.50
17994;DHT22;9122;48.406;9.984;2022-09-17T00:17:27;13.20;91.50
17994;DHT22;9122;48.406;9.984;2022-09-17T00:20:12;13.10;91.40
17994;DHT22;9122;48.406;9.984;2022-09-17T00:22:57;13.10;91.60
17994;DHT22;9122;48.406;9.984;2022-09-17T00:25:43;13.10;90.60
17994;DHT22;9122;48.406;9.984;2022-09-17T00:28:28;13.10;90.70
17994;DHT22;9122;48.406;9.984;2022-09-17T00:31:13;13.10;90.70
17994;DHT22;9122;48.406;9.984;2022-09-17T00:33:58;13.00;90.30
17994;DHT22;9122;48.406;9.984;2022-09-17T00:36:43;13.00;90.10
17994;DHT22;9122;48.406;9.984;2022-09-17T00:39:28;13.00;90.10
17994;DHT22;9122;48.406;9.984;2022-09-17T00:42:13;13.40;90.60
17994;DHT22;9122;48.406;9.984;2022-09-17T00:44:58;13.00;90.00
17994;DHT22;9122;48.406;9.984;2022-09-17T00:48:03;12.90;90.10
17994;DHT22;9122;48.406;9.984;2022-09-17T00:50:49;12.90;90.10
17994;DHT22;9122;48.406;9.984;2022-09-17T00:53:35;12.90;90.10
17994;DHT22;9122;48.406;9.984;2022-09-17T00:56:31;12.90;90.20
17994;DHT22;9122;48.406;9.984;2022-09-17T00:59:18;12.90;90.20
17994;DHT22;9122;48.406;9.984;2022-09-17T01:02:03;12.90;90.10
17994;DHT22;9122;48.406;9.984;2022-09-17T01:04:48;12.90;90.10
17994;DHT22;9122;48.406;9.984;2022-09-17T01:13:37;12.90;90.00
17994;DHT22;9122;48.406;9.984;2022-09-17T01:16:39;12.90;90.00
17994;DHT22;9122;48.406;9.984;2022-09-17T01:31:53;12.70;90.10
17994;DHT22;9122;48.406;9.984;2022-09-17T01:34:48;12.80;89.90
17994;DHT22;9122;48.406;9.984;2022-09-17T01:40:55;12.70;89.90
17994;DHT22;9122;48.406;9.984;2022-09-17T01:47:30;12.70;89.80
17994;DHT22;9122;48.406;9.984;2022-09-17T01:50:30;12.70;90.00
17994;DHT22;9122;48.406;9.984;2022-09-17T01:53:19;12.70;89.90
17994;DHT22;9122;48.406;9.984;2022-09-17T01:56:06;12.70;89.90
17994;DHT22;9122;48.406;9.984;2022-09-17T01:59:21;12.60;89.80
17994;DHT22;9122;48.406;9.984;2022-09-17T02:02:11;12.70;89.70
17994;DHT22;9122;48.406;9.984;2022-09-17T02:05:04;12.60;89.60
17994;DHT22;9122;48.406;9.984;2022-09-17T02:07:56;12.60;89.40
17994;DHT22;9122;48.406;9.984;2022-09-17T02:10:48;12.60;89.30
17994;DHT22;9122;48.406;9.984;2022-09-17T02:13:54;12.60;89.20
17994;DHT22;9122;48.406;9.984;2022-09-17T02:16:51;12.60;90.00
17994;DHT22;9122;48.406;9.984;2022-09-17T02:19:38;12.60;89.50
17994;DHT22;9122;48.406;9.984;2022-09-17T02:28:14;12.50;89.40
17994;DHT22;9122;48.406;9.984;2022-09-17T02:31:00;12.50;89.60
17994;DHT22;9122;48.406;9.984;2022-09-17T02:33:49;12.50;89.70
17994;DHT22;9122;48.406;9.984;2022-09-17T02:36:34;12.50;89.80
17994;DHT22;9122;48.406;9.984;2022-09-17T02:39:19;12.50;89.80
17994;DHT22;9122;48.406;9.984;2022-09-17T02:42:16;12.50;89.90
17994;DHT22;9122;48.406;9.984;2022-09-17T02:54:41;12.50;90.10
17994;DHT22;9122;48.406;9.984;2022-09-17T03:00:44;12.40;90.20
17994;DHT22;9122;48.406;9.984;2022-09-17T03:03:33;12.40;90.20
17994;DHT22;9122;48.406;9.984;2022-09-17T03:06:19;12.40;90.30
17994;DHT22;9122;48.406;9.984;2022-09-17T03:09:04;12.40;90.20
17994;DHT22;9122;48.406;9.984;2022-09-17T03:11:51;12.40;90.20
17994;DHT22;9122;48.406;9.984;2022-09-17T03:14:35;12.40;90.20
17994;DHT22;9122;48.406;9.984;2022-09-17T03:17:20;12.40;90.20
17994;DHT22;9122;48.406;9.984;2022-09-17T03:20:05;12.40;90.20
17994;DHT22;9122;48.406;9.984;2022-09-17T03:22:50;12.40;90.20
17994;DHT22;9122;48.406;9.984;2022-09-17T03:25:35;12.30;90.30
17994;DHT22;9122;48.406;9.984;2022-09-17T03:28:20;12.30;90.40
17994;DHT22;9122;48.406;9.984;2022-09-17T03:31:04;12.30;90.40
17994;DHT22;9122;48.406;9.984;2022-09-17T03:33:49;12.30;90.40
17994;DHT22;9122;48.406;9.984;2022-09-17T03:36:36;12.30;90.50
17994;DHT22;9122;48.406;9.984;2022-09-17T03:39:20;12.30;90.50
17994;DHT22;9122;48.406;9.984;2022-09-17T03:42:05;12.30;90.50
17994;DHT22;9122;48.406;9.984;2022-09-17T03:44:50;12.30;90.80
17994;DHT22;9122;48.406;9.984;2022-09-17T03:47:34;12.20;90.50
17994;DHT22;9122;48.406;9.984;2022-09-17T03:50:18;12.20;90.40
17994;DHT22;9122;48.406;9.984;2022-09-17T03:53:02;12.20;90.40
17994;DHT22;9122;48.406;9.984;2022-09-17T03:55:47;12.20;90.70
17994;DHT22;9122;48.406;9.984;2022-09-17T03:58:31;12.20;90.40
17994;DHT22;9122;48.406;9.984;2022-09-17T04:01:16;12.20;90.40
17994;DHT22;9122;48.406;9.984;2022-09-17T04:04:01;12.20;90.40
17994;DHT22;9122;48.406;9.984;2022-09-17T04:06:45;12.10;90.50
17994;DHT22;9122;48.406;9.984;2022-09-17T04:09:30;12.10;90.60
17994;DHT22;9122;48.406;9.984;2022-09-17T04:12:14;12.10;90.60
17994;DHT22;9122;48.406;9.984;2022-09-17T04:14:59;12.10;90.50
17994;DHT22;9122;48.406;9.984;2022-09-17T04:17:43;12.10;90.50
17994;DHT22;9122;48.406;9.984;2022-09-17T04:20:27;12.10;90.50
17994;DHT22;9122;48.406;9.984;2022-09-17T04:23:12;12.00;90.40
17994;DHT22;9122;48.406;9.984;2022-09-17T04:25:57;12.00;90.20
17994;DHT22;9122;48.406;9.984;2022-09-17T04:28:41;12.00;90.00
17994;DHT22;9122;48.406;9.984;2022-09-17T04:31:25;12.00;90.00
17994;DHT22;9122;48.406;9.984;2022-09-17T04:34:10;12.00;89.40
17994;DHT22;9122;48.406;9.984;2022-09-17T04:36:54;11.90;89.30
17994;DHT22;9122;48.406;9.984;2022-09-17T04:39:39;11.90;89.30
17994;DHT22;9122;48.406;9.984;2022-09-17T04:42:23;11.90;89.40
17994;DHT22;9122;48.406;9.984;2022-09-17T04:45:08;11.90;89.70
17994;DHT22;9122;48.406;9.984;2022-09-17T04:47:52;11.90;90.10
17994;DHT22;9122;48.406;9.984;2022-09-17T04:50:36;11.90;90.40
17994;DHT22;9122;48.406;9.984;2022-09-17T04:53:21;11.80;90.50
17994;DHT22;9122;48.406;9.984;2022-09-17T04:56:05;11.90;90.80
17994;DHT22;9122;48.406;9.984;2022-09-17T04:58:49;11.90;91.00
17994;DHT22;9122;48.406;9.984;2022-09-17T05:01:33;11.80;91.00
17994;DHT22;9122;48.406;9.984;2022-09-17T05:04:17;11.80;91.00
17994;DHT22;9122;48.406;9.984;2022-09-17T05:07:02;11.80;91.30
17994;DHT22;9122;48.406;9.984;2022-09-17T05:09:46;11.80;91.00
17994;DHT22;9122;48.406;9.984;2022-09-17T05:12:31;11.80;91.00
17994;DHT22;9122;48.406;9.984;2022-09-17T05:15:16;11.80;91.00
17994;DHT22;9122;48.406;9.984;2022-09-17T05:18:00;11.80;90.90
17994;DHT22;9122;48.406;9.984;2022-09-17T05:20:45;11.80;90.90
17994;DHT22;9122;48.406;9.984;2022-09-17T05:23:29;11.70;90.80
17994;DHT22;9122;48.406;9.984;2022-09-17T05:26:14;11.70;90.80
17994;DHT22;9122;48.406;9.984;2022-09-17T05:28:58;11.70;90.90
17994;DHT22;9122;48.406;9.984;2022-09-17T05:31:43;11.70;90.90
17994;DHT22;9122;48.406;9.984;2022-09-17T05:34:28;11.70;90.90
17994;DHT22;9122;48.406;9.984;2022-09-17T05:37:12;11.70;91.00
17994;DHT22;9122;48.406;9.984;2022-09-17T05:39:56;11.70;90.90
17994;DHT22;9122;48.406;9.984;2022-09-17T05:42:41;11.60;90.80
17994;DHT22;9122;48.406;9.984;2022-09-17T05:45:26;11.60;90.70
17994;DHT22;9122;48.406;9.984;2022-09-17T05:48:13;11.60;90.70
17994;DHT22;9122;48.406;9.984;2022-09-17T05:50:57;11.60;90.70
17994;DHT22;9122;48.406;9.984;2022-09-17T05:53:41;11.60;90.70
17994;DHT22;9122;48.406;9.984;2022-09-17T05:56:26;11.60;90.70
17994;DHT22;9122;48.406;9.984;2022-09-17T05:59:10;11.60;90.70
17994;DHT22;9122;48.406;9.984;2022-09-17T06:01:55;11.60;90.70
17994;DHT22;9122;48.406;9.984;2022-09-17T06:04:40;11.50;90.70
17994;DHT22;9122;48.406;9.984;2022-09-17T06:07:25;11.60;90.80
17994;DHT22;9122;48.406;9.984;2022-09-17T06:10:09;11.60;90.80
17994;DHT22;9122;48.406;9.984;2022-09-17T06:12:57;11.60;90.80
17994;DHT22;9122;48.406;9.984;2022-09-17T06:15:42;11.60;90.80
17994;DHT22;9122;48.406;9.984;2022-09-17T06:18:32;11.60;90.90
17994;DHT22;9122;48.406;9.984;2022-09-17T06:21:16;11.70;91.00
17994;DHT22;9122;48.406;9.984;2022-09-17T06:24:01;11.70;90.80
17994;DHT22;9122;48.406;9.984;2022-09-17T06:27:14;11.70;90.80
17994;DHT22;9122;48.406;9.984;2022-09-17T06:29:58;11.80;90.90
17994;DHT22;9122;48.406;9.984;2022-09-17T06:32:42;11.80;91.00
17994;DHT22;9122;48.406;9.984;2022-09-17T06:35:27;11.90;91.00
17994;DHT22;9122;48.406;9.984;2022-09-17T06:38:12;11.90;90.80
17994;DHT22;9122;48.406;9.984;2022-09-17T06:40:56;12.00;90.70
17994;DHT22;9122;48.406;9.984;2022-09-17T06:43:41;12.10;90.60
17994;DHT22;9122;48.406;9.984;2022-09-17T06:46:27;12.10;90.40
17994;DHT22;9122;48.406;9.984;2022-09-17T06:49:11;12.20;90.30
17994;DHT22;9122;48.406;9.984;2022-09-17T06:51:56;12.30;90.30
17994;DHT22;9122;48.406;9.984;2022-09-17T06:54:41;12.30;90.30
17994;DHT22;9122;48.406;9.984;2022-09-17T06:57:25;12.30;90.20
17994;DHT22;9122;48.406;9.984;2022-09-17T07:00:10;12.30;90.00
17994;DHT22;9122;48.406;9.984;2022-09-17T07:02:57;12.30;89.40
17994;DHT22;9122;48.406;9.984;2022-09-17T07:05:43;12.20;89.00
17994;DHT22;9122;48.406;9.984;2022-09-17T07:08:32;12.30;88.80
17994;DHT22;9122;48.406;9.984;2022-09-17T07:11:24;12.30;88.60
17994;DHT22;9122;48.406;9.984;2022-09-17T07:14:09;12.30;88.30
17994;DHT22;9122;48.406;9.984;2022-09-17T07:16:53;12.30;88.40
17994;DHT22;9122;48.406;9.984;2022-09-17T07:19:38;12.30;88.30
17994;DHT22;9122;48.406;9.984;2022-09-17T07:22:24;12.30;88.40
17994;DHT22;9122;48.406;9.984;2022-09-17T07:25:09;12.20;88.70
17994;DHT22;9122;48.406;9.984;2022-09-17T07:27:53;12.20;89.10
17994;DHT22;9122;48.406;9.984;2022-09-17T07:30:38;12.20;89.30
17994;DHT22;9122;48.406;9.984;2022-09-17T07:33:25;12.20;89.30
17994;DHT22;9122;48.406;9.984;2022-09-17T07:36:11;12.20;89.40
17994;DHT22;9122;48.406;9.984;2022-09-17T07:38:56;12.20;89.10
17994;DHT22;9122;48.406;9.984;2022-09-17T07:41:41;12.10;89.00
17994;DHT22;9122;48.406;9.984;2022-09-17T07:44:26;12.10;89.10
17994;DHT22;9122;48.406;9.984;2022-09-17T07:47:11;12.10;89.10
17994;DHT22;9122;48.406;9.984;2022-09-17T07:49:56;12.10;89.30
17994;DHT22;9122;48.406;9.984;2022-09-17T07:52:46;12.10;89.20
17994;DHT22;9122;48.406;9.984;2022-09-17T07:55:31;12.10;89.10
17994;DHT22;9122;48.406;9.984;2022-09-17T07:58:15;12.60;89.40
17994;DHT22;9122;48.406;9.984;2022-09-17T08:01:08;12.10;89.00
17994;DHT22;9122;48.406;9.984;2022-09-17T08:03:53;12.10;89.30
17994;DHT22;9122;48.406;9.984;2022-09-17T08:06:38;12.10;89.40
17994;DHT22;9122;48.406;9.984;2022-09-17T08:09:23;12.10;89.10
17994;DHT22;9122;48.406;9.984;2022-09-17T08:12:07;12.10;89.20
17994;DHT22;9122;48.406;9.984;2022-09-17T08:14:51;12.10;89.60
17994;DHT22;9122;48.406;9.984;2022-09-17T08:17:35;12.10;89.70
17994;DHT22;9122;48.406;9.984;2022-09-17T08:20:21;12.10;90.10
17994;DHT22;9122;48.406;9.984;2022-09-17T08:23:07;12.00;90.40
17994;DHT22;9122;48.406;9.984;2022-09-17T08:25:56;12.10;89.80
17994;DHT22;9122;48.406;9.984;2022-09-17T08:28:46;12.10;89.60
17994;DHT22;9122;48.406;9.984;2022-09-17T08:31:31;12.10;89.40
17994;DHT22;9122;48.406;9.984;2022-09-17T08:34:16;12.20;89.10
17994;DHT22;9122;48.406;9.984;2022-09-17T08:37:01;12.30;88.80
17994;DHT22;9122;48.406;9.984;2022-09-17T08:39:46;12.40;88.20
17994;DHT22;9122;48.406;9.984;2022-09-17T08:42:36;12.50;87.80
17994;DHT22;9122;48.406;9.984;2022-09-17T08:45:24;12.50;87.40
17994;DHT22;9122;48.406;9.984;2022-09-17T08:48:12;12.60;87.50
17994;DHT22;9122;48.406;9.984;2022-09-17T08:50:57;12.70;86.40
17994;DHT22;9122;48.406;9.984;2022-09-17T08:54:16;12.80;86.30
17994;DHT22;9122;48.406;9.984;2022-09-17T09:06:04;12.50;90.10
17994;DHT22;9122;48.406;9.984;2022-09-17T09:08:56;12.60;90.70
17994;DHT22;9122;48.406;9.984;2022-09-17T09:11:43;12.60;90.70
17994;DHT22;9122;48.406;9.984;2022-09-17T09:14:34;12.60;90.80
17994;DHT22;9122;48.406;9.984;2022-09-17T09:17:21;12.60;90.90
17994;DHT22;9122;48.406;9.984;2022-09-17T09:23:58;12.60;91.40
17994;DHT22;9122;48.406;9.984;2022-09-17T09:27:35;12.60;91.60
17994;DHT22;9122;48.406;9.984;2022-09-17T09:35:41;12.50;91.00
17994;DHT22;9122;48.406;9.984;2022-09-17T09:38:34;12.50;90.80
17994;DHT22;9122;48.406;9.984;2022-09-17T09:41:42;12.50;90.60
17994;DHT22;9122;48.406;9.984;2022-09-17T09:44:28;12.50;90.50
17994;DHT22;9122;48.406;9.984;2022-09-17T09:53:47;12.50;91.20
17994;DHT22;9122;48.406;9.984;2022-09-17T09:59:42;12.40;91.60
17994;DHT22;9122;48.406;9.984;2022-09-17T10:02:27;12.40;91.90
17994;DHT22;9122;48.406;9.984;2022-09-17T10:05:12;12.40;91.90
17994;DHT22;9122;48.406;9.984;2022-09-17T10:07:57;12.40;92.00
17994;DHT22;9122;48.406;9.984;2022-09-17T10:11:00;12.30;92.30
17994;DHT22;9122;48.406;9.984;2022-09-17T10:13:45;12.30;92.70
17994;DHT22;9122;48.406;9.984;2022-09-17T10:16:30;12.50;93.00
17994;DHT22;9122;48.406;9.984;2022-09-17T10:19:19;12.60;92.80
17994;DHT22;9122;48.406;9.984;2022-09-17T10:25:06;12.90;92.30
17994;DHT22;9122;48.406;9.984;2022-09-17T10:28:04;13.10;91.90
17994;DHT22;9122;48.406;9.984;2022-09-17T10:30:55;13.10;91.40
17994;DHT22;9122;48.406;9.984;2022-09-17T10:33:55;13.20;90.70
17994;DHT22;9122;48.406;9.984;2022-09-17T10:36:43;13.30;90.70
17994;DHT22;9122;48.406;9.984;2022-09-17T10:42:17;13.30;90.30
17994;DHT22;9122;48.406;9.984;2022-09-17T10:45:01;13.40;90.20
17994;DHT22;9122;48.406;9.984;2022-09-17T10:47:46;13.40;90.00
17994;DHT22;9122;48.406;9.984;2022-09-17T10:50:32;13.40;90.00
17994;DHT22;9122;48.406;9.984;2022-09-17T10:53:24;13.40;90.00
17994;DHT22;9122;48.406;9.984;2022-09-17T10:56:21;13.40;89.90
17994;DHT22;9122;48.406;9.984;2022-09-17T11:02:22;13.40;89.20
17994;DHT22;9122;48.406;9.984;2022-09-17T11:12:30;13.40;89.50
17994;DHT22;9122;48.406;9.984;2022-09-17T11:18:25;13.40;88.90
17994;DHT22;9122;48.406;9.984;2022-09-17T11:35:51;13.40;90.20
17994;DHT22;9122;48.406;9.984;2022-09-17T11:38:49;13.40;90.50
17994;DHT22;9122;48.406;9.984;2022-09-17T11:41:38;13.40;90.60
17994;DHT22;9122;48.406;9.984;2022-09-17T11:44:56;13.30;90.40
17994;DHT22;9122;48.406;9.984;2022-09-17T11:47:46;13.30;90.10
17994;DHT22;9122;48.406;9.984;2022-09-17T11:50:44;13.30;90.20
17994;DHT22;9122;48.406;9.984;2022-09-17T11:53:40;13.20;90.50
17994;DHT22;9122;48.406;9.984;2022-09-17T11:56:38;13.20;91.00
17994;DHT22;9122;48.406;9.984;2022-09-17T12:05:44;13.40;90.80
17994;DHT22;9122;48.406;9.984;2022-09-17T12:11:44;13.60;90.50
17994;DHT22;9122;48.406;9.984;2022-09-17T12:14:46;13.70;90.30
17994;DHT22;9122;48.406;9.984;2022-09-17T12:20:58;13.80;89.90
17994;DHT22;9122;48.406;9.984;2022-09-17T12:23:58;13.90;90.10
17994;DHT22;9122;48.406;9.984;2022-09-17T12:30:10;14.00;89.60
17994;DHT22;9122;48.406;9.984;2022-09-17T12:35:58;14.00;89.00
17994;DHT22;9122;48.406;9.984;2022-09-17T12:39:08;14.00;88.90
17994;DHT22;9122;48.406;9.984;2022-09-17T12:42:07;14.10;88.90
17994;DHT22;9122;48.406;9.984;2022-09-17T12:45:12;14.10;89.00
17994;DHT22;9122;48.406;9.984;2022-09-17T13:17:16;14.30;81.90
17994;DHT22;9122;48.406;9.984;2022-09-17T13:20:16;14.40;82.20
17994;DHT22;9122;48.406;9.984;2022-09-17T13:23:04;14.40;82.70
17994;DHT22;9122;48.406;9.984;2022-09-17T13:25:52;14.50;81.80
17994;DHT22;9122;48.406;9.984;2022-09-17T13:28:45;14.50;82.20
17994;DHT22;9122;48.406;9.984;2022-09-17T13:34:30;14.50;84.00
17994;DHT22;9122;48.406;9.984;2022-09-17T13:37:18;14.50;84.20
17994;DHT22;9122;48.406;9.984;2022-09-17T13:40:04;14.50;84.40
17994;DHT22;9122;48.406;9.984;2022-09-17T13:48:46;14.40;85.00
17994;DHT22;9122;48.406;9.984;2022-09-17T13:54:22;14.30;85.20
17994;DHT22;9122;48.406;9.984;2022-09-17T13:57:18;14.30;85.40
17994;DHT22;9122;48.406;9.984;2022-09-17T14:00:03;14.30;85.70
17994;DHT22;9122;48.406;9.984;2022-09-17T14:02:48;14.20;86.00
17994;DHT22;9122;48.406;9.984;2022-09-17T14:05:34;14.20;87.00
17994;DHT22;9122;48.406;9.984;2022-09-17T14:08:30;14.20;87.40
17994;DHT22;9122;48.406;9.984;2022-09-17T14:14:39;14.10;88.40
17994;DHT22;9122;48.406;9.984;2022-09-17T14:17:47;14.10;89.20
17994;DHT22;9122;48.406;9.984;2022-09-17T14:20:33;14.10;89.40
17994;DHT22;9122;48.406;9.984;2022-09-17T14:23:18;14.10;89.60
17994;DHT22;9122;48.406;9.984;2022-09-17T14:26:04;14.10;89.20
17994;DHT22;9122;48.406;9.984;2022-09-17T14:29:22;14.10;89.20
17994;DHT22;9122;48.406;9.984;2022-09-17T14:32:12;14.10;89.20
17994;DHT22;9122;48.406;9.984;2022-09-17T14:35:11;14.00;87.50
17994;DHT22;9122;48.406;9.984;2022-09-17T14:38:12;14.00;85.80
17994;DHT22;9122;48.406;9.984;2022-09-17T14:46:51;13.80;82.80
17994;DHT22;9122;48.406;9.984;2022-09-17T14:49:38;13.80;83.70
17994;DHT22;9122;48.406;9.984;2022-09-17T14:52:25;13.70;84.20
17994;DHT22;9122;48.406;9.984;2022-09-17T14:55:16;13.60;84.20
17994;DHT22;9122;48.406;9.984;2022-09-17T14:58:00;13.50;84.40
17994;DHT22;9122;48.406;9.984;2022-09-17T15:00:52;13.50;84.70
17994;DHT22;9122;48.406;9.984;2022-09-17T15:03:36;13.50;84.90
17994;DHT22;9122;48.406;9.984;2022-09-17T15:06:24;13.40;85.00
17994;DHT22;9122;48.406;9.984;2022-09-17T15:09:27;13.50;85.30
17994;DHT22;9122;48.406;9.984;2022-09-17T15:12:16;13.40;85.70
17994;DHT22;9122;48.406;9.984;2022-09-17T15:15:02;13.20;85.70
17994;DHT22;9122;48.406;9.984;2022-09-17T15:17:47;13.40;85.80
17994;DHT22;9122;48.406;9.984;2022-09-17T15:20:32;13.50;85.80
17994;DHT22;9122;48.406;9.984;2022-09-17T15:23:21;13.50;86.00
17994;DHT22;9122;48.406;9.984;2022-09-17T15:26:07;13.50;86.00
17994;DHT22;9122;48.406;9.984;2022-09-17T15:28:53;13.50;86.30
17994;DHT22;9122;48.406;9.984;2022-09-17T15:31:39;13.40;86.50
17994;DHT22;9122;48.406;9.984;2022-09-17T15:34:24;13.40;86.60
17994;DHT22;9122;48.406;9.984;2022-09-17T15:37:19;13.40;87.10
17994;DHT22;9122;48.406;9.984;2022-09-17T15:40:12;13.40;86.80
17994;DHT22;9122;48.406;9.984;2022-09-17T15:43:32;13.40;86.80
17994;DHT22;9122;48.406;9.984;2022-09-17T15:46:29;13.40;87.40
17994;DHT22;9122;48.406;9.984;2022-09-17T15:49:33;13.40;88.20
17994;DHT22;9122;48.406;9.984;2022-09-17T15:52:29;13.40;88.40
17994;DHT22;9122;48.406;9.984;2022-09-17T15:55:27;13.40;88.10
17994;DHT22;9122;48.406;9.984;2022-09-17T16:09:51;13.30;86.90
17994;DHT22;9122;48.406;9.984;2022-09-17T16:12:36;13.30;86.90
17994;DHT22;9122;48.406;9.984;2022-09-17T16:15:21;13.30;86.60
17994;DHT22;9122;48.406;9.984;2022-09-17T16:18:09;13.30;86.80
17994;DHT22;9122;48.406;9.984;2022-09-17T16:20:54;13.20;86.60
17994;DHT22;9122;48.406;9.984;2022-09-17T16:23:39;13.20;86.30
17994;DHT22;9122;48.406;9.984;2022-09-17T16:26:28;13.20;87.40
17994;DHT22;9122;48.406;9.984;2022-09-17T16:29:16;13.20;86.80
17994;DHT22;9122;48.406;9.984;2022-09-17T16:32:01;13.20;87.20
17994;DHT22;9122;48.406;9.984;2022-09-17T16:34:46;13.20;87.60
17994;DHT22;9122;48.406;9.984;2022-09-17T16:37:30;13.10;87.80
17994;DHT22;9122;48.406;9.984;2022-09-17T16:40:14;13.10;87.80
17994;DHT22;9122;48.406;9.984;2022-09-17T16:43:02;13.10;88.20
17994;DHT22;9122;48.406;9.984;2022-09-17T16:46:16;13.80;88.70
17994;DHT22;9122;48.406;9.984;2022-09-17T16:49:00;13.10;88.50
17994;DHT22;9122;48.406;9.984;2022-09-17T16:51:46;13.10;88.80
17994;DHT22;9122;48.406;9.984;2022-09-17T16:54:31;13.10;89.20
17994;DHT22;9122;48.406;9.984;2022-09-17T16:57:18;13.10;89.50
17994;DHT22;9122;48.406;9.984;2022-09-17T17:00:06;13.10;89.50
17994;DHT22;9122;48.406;9.984;2022-09-17T17:02:55;13.10;89.50
17994;DHT22;9122;48.406;9.984;2022-09-17T17:05:40;13.10;89.50
17994;DHT22;9122;48.406;9.984;2022-09-17T17:08:26;13.00;89.60
17994;DHT22;9122;48.406;9.984;2022-09-17T17:11:11;13.00;89.90
17994;DHT22;9122;48.406;9.984;2022-09-17T17:13:56;13.00;90.20
17994;DHT22;9122;48.406;9.984;2022-09-17T17:16:40;13.00;90.30
17994;DHT22;9122;48.406;9.984;2022-09-17T17:19:26;13.00;90.50
17994;DHT22;9122;48.406;9.984;2022-09-17T17:22:15;12.90;90.50
17994;DHT22;9122;48.406;9.984;2022-09-17T17:24:59;12.90;90.60
17994;DHT22;9122;48.406;9.984;2022-09-17T17:27:44;12.90;90.70
17994;DHT22;9122;48.406;9.984;2022-09-17T17:30:29;12.80;90.70
17994;DHT22;9122;48.406;9.984;2022-09-17T17:33:16;12.80;90.70
17994;DHT22;9122;48.406;9.984;2022-09-17T17:36:01;13.40;90.90
17994;DHT22;9122;48.406;9.984;2022-09-17T17:38:46;12.80;90.80
17994;DHT22;9122;48.406;9.984;2022-09-17T17:41:31;12.80;90.80
17994;DHT22;9122;48.406;9.984;2022-09-17T17:44:15;12.80;90.80
17994;DHT22;9122;48.406;9.984;2022-09-17T17:47:00;12.80;90.70
17994;DHT22;9122;48.406;9.984;2022-09-17T17:49:45;12.70;90.70
17994;DHT22;9122;48.406;9.984;2022-09-17T17:52:31;12.70;90.70
17994;DHT22;9122;48.406;9.984;2022-09-17T17:55:16;12.70;90.70
17994;DHT22;9122;48.406;9.984;2022-09-17T17:58:01;12.70;90.80
17994;DHT22;9122;48.406;9.984;2022-09-17T18:00:45;12.60;90.80
17994;DHT22;9122;48.406;9.984;2022-09-17T18:03:29;12.60;90.90
17994;DHT22;9122;48.406;9.984;2022-09-17T18:06:14;12.60;90.90
17994;DHT22;9122;48.406;9.984;2022-09-17T18:08:59;12.60;91.00
17994;DHT22;9122;48.406;9.984;2022-09-17T18:11:43;12.50;91.00
17994;DHT22;9122;48.406;9.984;2022-09-17T18:14:28;12.50;91.00
17994;DHT22;9122;48.406;9.984;2022-09-17T18:17:13;12.50;91.00
17994;DHT22;9122;48.406;9.984;2022-09-17T18:19:58;12.50;91.00
17994;DHT22;9122;48.406;9.984;2022-09-17T18:22:44;12.50;91.00
17994;DHT22;9122;48.406;9.984;2022-09-17T18:25:28;12.50;91.00
17994;DHT22;9122;48.406;9.984;2022-09-17T18:28:13;12.40;91.00
17994;DHT22;9122;48.406;9.984;2022-09-17T18:31:06;12.40;91.10
17994;DHT22;9122;48.406;9.984;2022-09-17T18:34:06;12.40;91.00
17994;DHT22;9122;48.406;9.984;2022-09-17T18:36:51;12.40;91.00
17994;DHT22;9122;48.406;9.984;2022-09-17T18:39:35;12.40;91.00
17994;DHT22;9122;48.406;9.984;2022-09-17T18:42:20;12.40;91.10
17994;DHT22;9122;48.406;9.984;2022-09-17T18:45:05;12.40;91.30
17994;DHT22;9122;48.406;9.984;2022-09-17T18:47:51;12.40;91.60
17994;DHT22;9122;48.406;9.984;2022-09-17T18:50:35;12.40;91.80
17994;DHT22;9122;48.406;9.984;2022-09-17T18:53:21;12.40;91.90
17994;DHT22;9122;48.406;9.984;2022-09-17T18:58:57;12.40;92.10
17994;DHT22;9122;48.406;9.984;2022-09-17T19:01:42;12.30;92.00
17994;DHT22;9122;48.406;9.984;2022-09-17T19:04:26;12.30;92.10
17994;DHT22;9122;48.406;9.984;2022-09-17T19:07:14;12.30;92.10
17994;DHT22;9122;48.406;9.984;2022-09-17T19:09:59;12.30;92.20
17994;DHT22;9122;48.406;9.984;2022-09-17T19:12:43;12.30;92.10
17994;DHT22;9122;48.406;9.984;2022-09-17T19:15:29;12.30;92.10
17994;DHT22;9122;48.406;9.984;2022-09-17T19:18:13;12.30;91.90
17994;DHT22;9122;48.406;9.984;2022-09-17T19:21:05;12.20;91.90
17994;DHT22;9122;48.406;9.984;2022-09-17T19:23:51;12.20;92.00
17994;DHT22;9122;48.406;9.984;2022-09-17T19:26:35;12.20;92.00
17994;DHT22;9122;48.406;9.984;2022-09-17T19:29:20;12.20;92.10
17994;DHT22;9122;48.406;9.984;2022-09-17T19:32:06;12.20;92.10
17994;DHT22;9122;48.406;9.984;2022-09-17T19:34:53;12.20;92.10
17994;DHT22;9122;48.406;9.984;2022-09-17T19:37:38;12.20;92.10
17994;DHT22;9122;48.406;9.984;2022-09-17T19:40:22;12.20;92.10
17994;DHT22;9122;48.406;9.984;2022-09-17T19:43:06;12.20;92.20
17994;DHT22;9122;48.406;9.984;2022-09-17T19:45:50;12.10;92.40
17994;DHT22;9122;48.406;9.984;2022-09-17T19:48:35;12.10;92.40
17994;DHT22;9122;48.406;9.984;2022-09-17T19:51:21;12.10;92.50
17994;DHT22;9122;48.406;9.984;2022-09-17T19:54:06;12.10;92.50
17994;DHT22;9122;48.406;9.984;2022-09-17T19:56:52;12.10;92.70
17994;DHT22;9122;48.406;9.984;2022-09-17T19:59:37;12.10;92.90
17994;DHT22;9122;48.406;9.984;2022-09-17T20:02:22;12.10;93.00
17994;DHT22;9122;48.406;9.984;2022-09-17T20:05:06;12.10;93.10
17994;DHT22;9122;48.406;9.984;2022-09-17T20:07:51;12.00;93.30
17994;DHT22;9122;48.406;9.984;2022-09-17T20:10:36;12.00;93.50
17994;DHT22;9122;48.406;9.984;2022-09-17T20:13:21;12.00;93.70
17994;DHT22;9122;48.406;9.984;2022-09-17T20:16:16;12.00;93.80
17994;DHT22;9122;48.406;9.984;2022-09-17T20:19:02;12.00;93.90
17994;DHT22;9122;48.406;9.984;2022-09-17T20:21:47;12.00;93.80
17994;DHT22;9122;48.406;9.984;2022-09-17T20:24:33;11.90;93.30
17994;DHT22;9122;48.406;9.984;2022-09-17T20:27:18;11.90;92.30
17994;DHT22;9122;48.406;9.984;2022-09-17T20:30:05;11.80;91.90
17994;DHT22;9122;48.406;9.984;2022-09-17T20:32:50;11.80;91.70
17994;DHT22;9122;48.406;9.984;2022-09-17T20:35:35;11.80;91.70
17994;DHT22;9122;48.406;9.984;2022-09-17T20:38:19;11.70;91.70
17994;DHT22;9122;48.406;9.984;2022-09-17T20:41:09;11.70;91.40
17994;DHT22;9122;48.406;9.984;2022-09-17T20:43:54;11.60;90.90
17994;DHT22;9122;48.406;9.984;2022-09-17T20:46:38;11.60;90.50
17994;DHT22;9122;48.406;9.984;2022-09-17T20:49:23;11.50;90.20
17994;DHT22;9122;48.406;9.984;2022-09-17T20:52:08;11.50;90.30
17994;DHT22;9122;48.406;9.984;2022-09-17T20:54:52;11.40;90.50
17994;DHT22;9122;48.406;9.984;2022-09-17T20:57:37;11.40;90.70
17994;DHT22;9122;48.406;9.984;2022-09-17T21:00:22;11.30;90.80
17994;DHT22;9122;48.406;9.984;2022-09-17T21:03:09;11.30;91.00
17994;DHT22;9122;48.406;9.984;2022-09-17T21:05:53;11.30;91.30